world map with ABV marked

ABV - Airport

This information may not be accurate or current and is not valid for navigation or flight planning. No warranty of fitness for any purpose is made or implied.

flag of Nigeria

Donate via PayPal

Additional information is available on the NEW Great Circle Mapper

Location
City:  Abuja, Abuja Federal Capital Territory, Nigeria
Name:Nnamdi Azikiwe International Airport
ICAO / IATA:DNAA / ABV

Details
Type:Airport (Aerodrome, Airfield)
Use:Public/Civil
Latitude:9°00'24"N (9.006792)
Longitude:7°15'47"E (7.263172)
Datum:WGS 1984
Elevation:1123 ft (342 m)
Runways:1
Longest:11842 × 197 ft (3609 × 60 m)

Time
Timezone:UTC+1 (DST+3)
Local Time:

Weather
METAR:DNAA  122100Z 01004KT CAVOK 24/19 Q1012 NOSIG
TAF:DNAA  121530Z 1218/1324 26005KT CAVOK BECMG 1220/1222 17003KT= TAF DNPO 121545Z 1218/1324 25004KT 8000 BKN010 FEW020CB PROB30 TEMPO 1218/1821 TS BECMG 1222/1224 SCT008 TEMPO 1302/1307 5000 BR PROB30 1304/1306 1500

Related Locations
Nearby:
Farthest:AAU: 12121 mi / 19506 km
Asau, WS

Find:

   beyond  
but within

Other Information
Maps:
Links:
Sources:

  


 


Great Circle Mapper   Great Circle Mapper
Great Circle Mapper FAQ   Great Circle Mapper FAQ
  Karl's Home Page
KLSē   KLSē Home
   GC on Facebook
Airlines of the World   Airlines of the World
Donate via PayPal


Copyright © 2004-2018, Karl L. Swartz. All rights reserved.
All trademarks mentioned herein belong to their respective owners.

Please see credits for attribution and copyright information.

Karl Swartz <karl@kls2.com>
  Powered by FreeBSD
Valid HTML 4.01!
Labeled with ICRA
hCard Microformat
Geo Microformat